createdAt,value
2023-03-04T00:01:05.924Z,66.88
2023-03-04T00:03:34.794Z,66.27
2023-03-04T00:06:01.434Z,66.14
2023-03-04T00:08:34.384Z,64.09
2023-03-04T00:11:03.374Z,64.08
2023-03-04T00:13:30.021Z,65.54
2023-03-04T00:15:56.640Z,65.60
2023-03-04T00:18:23.360Z,66.09
2023-03-04T00:20:50.621Z,64.31
2023-03-04T00:23:17.464Z,66.12
2023-03-04T00:25:44.036Z,65.98
2023-03-04T00:28:10.648Z,66.91
2023-03-04T00:30:37.222Z,67.27
2023-03-04T00:33:06.055Z,67.76
2023-03-04T00:35:32.699Z,66.75
2023-03-04T00:37:59.441Z,67.93
2023-03-04T00:40:28.128Z,68.03
2023-03-04T00:42:54.801Z,67.05
2023-03-04T00:45:24.071Z,66.74
2023-03-04T00:47:52.720Z,66.98
2023-03-04T00:50:21.640Z,68.20
2023-03-04T00:52:50.901Z,68.18
2023-03-04T00:55:22.238Z,68.59
2023-03-04T00:57:48.850Z,69.03
2023-03-04T01:00:18.612Z,68.87
2023-03-04T01:02:45.511Z,68.98
2023-03-04T01:05:12.949Z,69.57
2023-03-04T01:07:39.533Z,69.45
2023-03-04T01:10:08.655Z,69.98
2023-03-04T01:12:35.361Z,70.53
2023-03-04T01:15:07.658Z,69.26
2023-03-04T01:17:36.508Z,71.41
2023-03-04T01:20:04.786Z,69.85
2023-03-04T01:22:36.687Z,71.76
2023-03-04T01:25:06.863Z,71.03
2023-03-04T01:27:38.173Z,68.52
2023-03-04T01:30:05.559Z,68.36
2023-03-04T01:32:32.242Z,68.85
2023-03-04T01:34:58.882Z,68.83
2023-03-04T01:37:25.554Z,67.92
2023-03-04T01:39:54.408Z,66.31
2023-03-04T01:42:26.332Z,67.25
2023-03-04T01:44:53.877Z,67.20
2023-03-04T01:47:26.192Z,67.24
2023-03-04T01:49:55.973Z,68.43
2023-03-04T01:52:25.958Z,67.15
2023-03-04T01:54:52.910Z,67.83
2023-03-04T01:57:24.401Z,67.17
2023-03-04T02:00:31.238Z,65.87
2023-03-04T02:03:07.873Z,64.35
2023-03-04T02:05:37.349Z,66.32
2023-03-04T02:08:05.073Z,66.46
2023-03-04T02:10:34.277Z,64.45
2023-03-04T02:13:03.678Z,64.22
2023-03-04T02:15:30.653Z,63.45
2023-03-04T02:18:02.259Z,63.59
2023-03-04T02:20:28.969Z,61.80
2023-03-04T02:23:01.823Z,63.11
2023-03-04T02:25:36.096Z,64.34
2023-03-04T02:28:02.729Z,63.59
2023-03-04T02:30:31.553Z,64.93
2023-03-04T02:33:00.470Z,62.53
2023-03-04T02:35:29.648Z,64.27
2023-03-04T02:37:58.927Z,65.47
2023-03-04T02:40:30.889Z,63.47
2023-03-04T02:43:01.240Z,65.64
2023-03-04T02:45:37.519Z,64.28
2023-03-04T02:48:09.967Z,64.37
2023-03-04T02:50:49.287Z,62.24
2023-03-04T02:53:20.730Z,62.56
2023-03-04T02:55:50.707Z,62.13
2023-03-04T02:58:17.826Z,63.75
2023-03-04T03:00:46.743Z,64.97
2023-03-04T03:03:15.564Z,63.57
2023-03-04T03:05:44.517Z,64.06
2023-03-04T03:08:13.497Z,64.30
2023-03-04T03:10:40.136Z,64.23
2023-03-04T03:13:09.249Z,63.89
2023-03-04T03:15:42.336Z,62.13
2023-03-04T03:18:10.932Z,62.74
2023-03-04T03:20:43.372Z,63.00
2023-03-04T03:23:13.323Z,63.75
2023-03-04T03:25:39.966Z,63.82
2023-03-04T03:28:09.766Z,64.00
2023-03-04T03:30:38.705Z,64.41
2023-03-04T03:33:05.328Z,65.49
2023-03-04T03:35:36.686Z,65.30
2023-03-04T03:38:06.005Z,65.31
2023-03-04T03:40:35.036Z,65.42
2023-03-04T03:43:04.176Z,65.05
2023-03-04T03:45:30.836Z,63.86
2023-03-04T03:47:59.863Z,65.30
2023-03-04T03:50:26.535Z,64.11
2023-03-04T03:52:53.107Z,63.36
2023-03-04T03:55:22.459Z,62.06
2023-03-04T03:57:49.207Z,63.52
2023-03-04T04:00:16.962Z,64.20
2023-03-04T04:02:46.277Z,64.46
2023-03-04T04:05:13.209Z,64.13
2023-03-04T04:07:41.730Z,64.39
2023-03-04T04:10:11.202Z,64.20
2023-03-04T04:12:37.895Z,66.04
2023-03-04T04:15:04.956Z,64.67
2023-03-04T04:17:35.087Z,65.66
2023-03-04T04:20:01.773Z,66.30
2023-03-04T04:22:28.429Z,66.35
2023-03-04T04:24:59.754Z,66.28
2023-03-04T04:27:28.813Z,66.81
2023-03-04T04:29:55.451Z,65.59
2023-03-04T04:32:22.158Z,67.11
2023-03-04T04:34:51.200Z,66.92
2023-03-04T04:37:20.314Z,65.56
2023-03-04T04:39:46.907Z,66.33
2023-03-04T04:42:13.638Z,66.37
2023-03-04T04:44:40.239Z,66.92
2023-03-04T04:47:07.350Z,66.02
2023-03-04T04:49:36.493Z,66.83
2023-03-04T04:52:03.321Z,64.83
2023-03-04T04:54:30.180Z,64.60
2023-03-04T04:56:56.956Z,64.68
2023-03-04T04:59:23.735Z,65.74
2023-03-04T05:01:50.514Z,66.35
2023-03-04T05:04:17.055Z,67.01
2023-03-04T05:06:46.391Z,66.50
2023-03-04T05:09:13.070Z,67.72
2023-03-04T05:11:41.956Z,67.26
2023-03-04T05:14:10.836Z,69.08
2023-03-04T05:16:37.513Z,68.02
2023-03-04T05:19:06.458Z,68.37
2023-03-04T05:21:35.306Z,68.41
2023-03-04T05:24:04.334Z,67.75
2023-03-04T05:26:31.016Z,67.71
2023-03-04T05:29:00.102Z,68.95
2023-03-04T05:31:31.552Z,69.24
2023-03-04T05:33:58.194Z,69.38
2023-03-04T05:36:24.854Z,68.70
2023-03-04T05:38:51.558Z,69.79
2023-03-04T05:41:20.482Z,67.97
2023-03-04T05:43:47.060Z,68.98
2023-03-04T05:46:16.125Z,67.65
2023-03-04T05:48:44.957Z,66.29
2023-03-04T05:51:11.610Z,66.18
2023-03-04T05:53:40.522Z,66.60
2023-03-04T05:56:19.877Z,65.54
2023-03-04T05:58:49.391Z,65.06
2023-03-04T06:01:21.237Z,64.93
2023-03-04T06:03:49.505Z,65.34
2023-03-04T06:06:16.364Z,65.24
2023-03-04T06:08:45.173Z,64.06
2023-03-04T06:11:14.298Z,63.81
2023-03-04T06:13:40.952Z,67.33
2023-03-04T06:16:10.574Z,63.29
2023-03-04T06:18:37.353Z,63.12
2023-03-04T06:21:08.978Z,62.49
2023-03-04T06:23:35.883Z,63.39
2023-03-04T06:26:10.189Z,62.87
2023-03-04T06:28:39.351Z,61.68
2023-03-04T06:31:08.185Z,63.24
2023-03-04T06:33:34.924Z,63.08
2023-03-04T06:36:04.388Z,63.68
2023-03-04T06:38:30.924Z,62.51
2023-03-04T06:41:00.472Z,62.53
2023-03-04T06:43:29.473Z,62.25
2023-03-04T06:45:58.855Z,61.19
2023-03-04T06:48:27.818Z,61.36
2023-03-04T06:50:54.398Z,61.12
2023-03-04T06:53:23.638Z,60.93
2023-03-04T06:55:50.581Z,61.31
2023-03-04T06:58:19.861Z,60.95
2023-03-04T07:00:46.405Z,60.38
2023-03-04T07:03:13.974Z,59.99
2023-03-04T07:05:42.915Z,60.20
2023-03-04T07:08:10.243Z,59.79
2023-03-04T07:10:39.457Z,60.06
2023-03-04T07:13:06.582Z,59.40
2023-03-04T07:15:36.314Z,59.13
2023-03-04T07:18:03.167Z,59.42
2023-03-04T07:20:31.752Z,59.01
2023-03-04T07:23:03.285Z,58.68
2023-03-04T07:25:29.942Z,56.95
2023-03-04T07:27:56.972Z,56.00
2023-03-04T07:30:23.648Z,56.90
2023-03-04T07:32:50.277Z,56.05
2023-03-04T07:35:19.222Z,57.08
2023-03-04T07:37:48.090Z,55.02
2023-03-04T07:40:14.943Z,54.62
2023-03-04T07:42:41.607Z,56.34
2023-03-04T07:45:09.911Z,54.40
2023-03-04T07:47:36.509Z,55.25
2023-03-04T07:50:11.312Z,53.42
2023-03-04T07:52:46.725Z,52.44
2023-03-04T07:55:15.679Z,52.52
2023-03-04T07:57:44.678Z,53.25
2023-03-04T08:00:13.470Z,50.22
2023-03-04T08:02:43.359Z,54.18
2023-03-04T08:05:10.044Z,54.92
2023-03-04T08:07:39.383Z,48.38
2023-03-04T08:10:06.451Z,48.80
2023-03-04T08:12:33.399Z,46.34
2023-03-04T08:15:02.408Z,46.72
2023-03-04T08:17:31.423Z,45.92
2023-03-04T08:20:02.969Z,46.21
2023-03-04T08:22:34.299Z,46.45
2023-03-04T08:25:01.065Z,45.83
2023-03-04T08:27:27.766Z,45.29
2023-03-04T08:29:54.725Z,45.02
2023-03-04T08:32:21.937Z,44.17
2023-03-04T08:34:55.324Z,44.13
2023-03-04T08:37:22.084Z,43.86
2023-03-04T08:39:48.861Z,44.21
2023-03-04T08:42:16.126Z,43.13
2023-03-04T08:44:42.803Z,45.04
2023-03-04T08:47:10.491Z,59.72
2023-03-04T08:49:44.863Z,43.75
2023-03-04T08:52:11.495Z,46.21
2023-03-04T08:54:40.469Z,43.46
2023-03-04T08:57:07.859Z,45.45
2023-03-04T08:59:36.005Z,42.00
2023-03-04T09:02:09.496Z,42.29
2023-03-04T09:04:38.812Z,42.47
2023-03-04T09:07:10.593Z,50.19
2023-03-04T09:09:37.256Z,43.03
2023-03-04T09:12:06.751Z,46.13
2023-03-04T09:14:36.045Z,38.57
2023-03-04T09:17:08.210Z,42.99
2023-03-04T09:19:37.382Z,39.04
2023-03-04T09:22:04.054Z,40.04
2023-03-04T09:24:32.891Z,41.04
2023-03-04T09:27:00.257Z,41.49
2023-03-04T09:29:26.941Z,43.17
2023-03-04T09:31:53.528Z,42.83
2023-03-04T09:34:22.514Z,40.80
2023-03-04T09:36:51.443Z,42.16
2023-03-04T09:39:20.503Z,41.29
2023-03-04T09:41:53.096Z,42.90
2023-03-04T09:44:28.110Z,41.05
2023-03-04T09:46:58.424Z,40.56
2023-03-04T09:49:29.533Z,41.17
2023-03-04T09:52:03.017Z,39.75
2023-03-04T09:54:52.818Z,38.96
2023-03-04T09:57:39.753Z,39.51
2023-03-04T10:00:20.409Z,40.69
2023-03-04T10:03:12.626Z,40.82
2023-03-04T10:06:06.036Z,40.87
2023-03-04T10:08:47.796Z,41.30
2023-03-04T10:11:21.504Z,41.28
2023-03-04T10:13:57.604Z,40.49
2023-03-04T10:16:31.672Z,42.96
2023-03-04T10:19:13.502Z,41.02
2023-03-04T10:21:46.334Z,41.14
2023-03-04T10:24:18.005Z,40.66
2023-03-04T10:26:47.513Z,43.20
2023-03-04T10:29:17.660Z,41.45
2023-03-04T10:31:45.734Z,41.21
2023-03-04T10:34:16.751Z,41.71
2023-03-04T10:36:59.303Z,40.58
2023-03-04T10:39:31.304Z,40.90
2023-03-04T10:42:02.490Z,41.72
2023-03-04T10:44:38.666Z,41.50
2023-03-04T10:47:14.274Z,40.92
2023-03-04T10:49:55.642Z,39.06
2023-03-04T10:52:30.523Z,38.99
2023-03-04T10:55:15.338Z,39.96
2023-03-04T10:57:45.098Z,38.85
2023-03-04T11:00:17.847Z,37.19
2023-03-04T11:02:48.417Z,38.42
2023-03-04T11:05:15.011Z,38.67
2023-03-04T11:07:57.625Z,36.91
2023-03-04T11:10:39.722Z,36.34
2023-03-04T11:13:14.473Z,37.09
2023-03-04T11:15:52.636Z,37.77
2023-03-04T11:18:37.815Z,37.01
2023-03-04T11:21:08.170Z,38.38
2023-03-04T11:23:42.193Z,36.81
2023-03-04T11:26:19.259Z,37.67
2023-03-04T11:28:51.952Z,38.16
2023-03-04T11:31:50.518Z,37.64
2023-03-04T11:34:31.550Z,37.19
2023-03-04T11:37:03.581Z,36.62
2023-03-04T11:39:39.638Z,36.65
2023-03-04T11:42:17.850Z,37.51
2023-03-04T11:44:44.673Z,37.01
2023-03-04T11:47:26.342Z,36.75
2023-03-04T11:50:03.422Z,37.79
2023-03-04T11:52:44.620Z,37.59
2023-03-04T11:55:26.718Z,37.12
2023-03-04T11:58:40.701Z,37.34
2023-03-04T12:01:20.701Z,37.75
2023-03-04T12:04:07.142Z,37.37
2023-03-04T12:07:10.886Z,37.36
2023-03-04T12:09:58.794Z,37.50
2023-03-04T12:12:47.026Z,37.32
2023-03-04T12:15:19.243Z,37.76
2023-03-04T12:18:21.211Z,37.02
2023-03-04T12:20:56.819Z,37.79
2023-03-04T12:23:26.544Z,37.04
2023-03-04T12:26:24.073Z,38.45
2023-03-04T12:29:01.625Z,39.01
2023-03-04T12:31:34.359Z,39.11
2023-03-04T12:34:24.909Z,39.00
2023-03-04T12:37:20.217Z,38.29
2023-03-04T12:40:07.051Z,38.16
2023-03-04T12:43:16.045Z,38.34
2023-03-04T12:46:23.889Z,38.12
2023-03-04T12:48:59.644Z,37.98
2023-03-04T12:51:38.636Z,37.75
2023-03-04T12:54:34.855Z,38.25
2023-03-04T12:57:24.465Z,38.11
2023-03-04T12:59:57.102Z,37.73
2023-03-04T13:02:45.232Z,38.12
2023-03-04T13:05:57.214Z,38.51
2023-03-04T13:08:47.741Z,37.32
2023-03-04T13:11:28.514Z,36.79
2023-03-04T13:14:17.817Z,37.00
2023-03-04T13:16:45.758Z,37.23
2023-03-04T13:19:45.590Z,36.47
2023-03-04T13:22:31.039Z,37.32
2023-03-04T13:25:02.396Z,37.34
2023-03-04T13:27:50.145Z,37.46
2023-03-04T13:30:34.689Z,37.67
2023-03-04T13:33:10.528Z,37.00
2023-03-04T13:35:47.294Z,35.75
2023-03-04T13:38:35.002Z,35.57
2023-03-04T13:41:20.107Z,34.63
2023-03-04T13:44:00.138Z,33.97
2023-03-04T13:46:29.084Z,33.99
2023-03-04T13:49:00.435Z,34.15
2023-03-04T13:51:37.505Z,32.52
2023-03-04T13:54:19.576Z,31.89
2023-03-04T13:56:48.644Z,31.64
2023-03-04T13:59:24.605Z,31.26
2023-03-04T14:01:59.906Z,31.81
2023-03-04T14:04:39.427Z,30.71
2023-03-04T14:07:19.210Z,31.52
2023-03-04T14:10:20.658Z,31.77
2023-03-04T14:12:51.940Z,31.04
2023-03-04T14:15:35.373Z,31.35
2023-03-04T14:18:05.199Z,31.95
2023-03-04T14:20:35.165Z,30.93
2023-03-04T14:23:26.302Z,31.46
2023-03-04T14:26:07.118Z,31.25
2023-03-04T14:28:33.806Z,30.77
2023-03-04T14:31:01.250Z,29.99
2023-03-04T14:33:30.065Z,31.33
2023-03-04T14:36:02.650Z,30.59
2023-03-04T14:38:43.105Z,31.00
2023-03-04T14:41:24.872Z,31.26
2023-03-04T14:44:06.852Z,32.35
2023-03-04T14:46:42.862Z,33.21
2023-03-04T14:49:18.635Z,33.03
2023-03-04T14:51:50.819Z,32.28
2023-03-04T14:54:30.184Z,32.86
2023-03-04T14:56:58.331Z,32.95
2023-03-04T14:59:32.445Z,32.51
2023-03-04T15:02:23.770Z,33.00
2023-03-04T15:04:51.735Z,33.20
2023-03-04T15:07:27.456Z,33.77
2023-03-04T15:09:56.078Z,33.92
2023-03-04T15:12:28.613Z,34.12
2023-03-04T15:14:58.762Z,34.21
2023-03-04T15:17:33.156Z,35.04
2023-03-04T15:20:02.292Z,35.85
2023-03-04T15:22:31.421Z,35.54
2023-03-04T15:25:00.712Z,36.50
2023-03-04T15:27:32.738Z,35.71
2023-03-04T15:30:02.315Z,35.99
2023-03-04T15:32:32.274Z,38.24
2023-03-04T15:35:01.609Z,36.87
2023-03-04T15:37:29.577Z,36.07
2023-03-04T15:40:00.465Z,36.47
2023-03-04T15:42:28.282Z,37.00
2023-03-04T15:44:54.925Z,37.48
2023-03-04T15:47:23.917Z,38.01
2023-03-04T15:49:53.621Z,39.05
2023-03-04T15:52:22.331Z,39.03
2023-03-04T15:54:52.158Z,39.28
2023-03-04T15:57:23.878Z,39.91
2023-03-04T15:59:51.148Z,40.32
2023-03-04T16:02:24.017Z,40.70
2023-03-04T16:04:51.252Z,41.69
2023-03-04T16:07:25.142Z,40.67
2023-03-04T16:10:00.628Z,39.46
2023-03-04T16:12:27.869Z,39.91
2023-03-04T16:14:54.575Z,48.80
2023-03-04T16:17:23.662Z,40.74
2023-03-04T16:19:52.741Z,45.47
2023-03-04T16:22:25.774Z,37.70
2023-03-04T16:24:55.581Z,37.21
2023-03-04T16:27:27.055Z,37.23
2023-03-04T16:29:53.736Z,38.77
2023-03-04T16:32:20.526Z,39.37
2023-03-04T16:34:50.403Z,38.82
2023-03-04T16:37:20.256Z,38.73
2023-03-04T16:39:49.696Z,39.53
2023-03-04T16:42:19.203Z,38.59
2023-03-04T16:45:06.806Z,38.57
2023-03-04T16:47:34.469Z,38.07
2023-03-04T16:50:03.745Z,38.90
2023-03-04T16:52:32.913Z,38.50
2023-03-04T16:55:00.537Z,39.43
2023-03-04T16:57:28.823Z,39.46
2023-03-04T16:59:59.066Z,39.74
2023-03-04T17:02:27.041Z,40.13
2023-03-04T17:04:53.849Z,39.65
2023-03-04T17:07:20.478Z,39.97
2023-03-04T17:09:51.690Z,40.46
2023-03-04T17:12:18.318Z,40.62
2023-03-04T17:14:44.871Z,40.73
2023-03-04T17:17:15.577Z,41.20
2023-03-04T17:19:43.545Z,40.47
2023-03-04T17:22:10.109Z,41.15
2023-03-04T17:24:38.988Z,40.68
2023-03-04T17:27:12.861Z,41.03
2023-03-04T17:29:39.782Z,41.14
2023-03-04T17:32:08.947Z,41.13
2023-03-04T17:34:35.528Z,41.80
2023-03-04T17:37:07.073Z,41.92
2023-03-04T17:39:33.715Z,42.29
2023-03-04T17:42:05.084Z,42.14
2023-03-04T17:44:34.830Z,42.67
2023-03-04T17:47:01.469Z,42.84
2023-03-04T17:49:34.151Z,43.30
2023-03-04T17:52:05.736Z,43.90
2023-03-04T17:54:32.712Z,43.45
2023-03-04T17:56:59.688Z,44.41
2023-03-04T17:59:28.433Z,43.26
2023-03-04T18:01:57.284Z,43.81
2023-03-04T18:04:26.556Z,44.67
2023-03-04T18:06:53.706Z,44.92
2023-03-04T18:09:22.623Z,44.82
2023-03-04T18:11:49.221Z,45.53
2023-03-04T18:14:18.843Z,45.84
2023-03-04T18:16:45.922Z,45.85
2023-03-04T18:19:17.646Z,46.75
2023-03-04T18:21:47.430Z,46.93
2023-03-04T18:24:14.115Z,47.24
2023-03-04T18:26:40.662Z,47.92
2023-03-04T18:29:07.345Z,48.62
2023-03-04T18:31:36.828Z,48.11
2023-03-04T18:34:04.887Z,48.19
2023-03-04T18:36:31.858Z,49.51
2023-03-04T18:38:59.652Z,49.25
2023-03-04T18:41:31.322Z,49.98
2023-03-04T18:43:57.860Z,49.50
2023-03-04T18:46:49.837Z,50.66
2023-03-04T18:49:21.999Z,50.80
2023-03-04T18:51:53.798Z,51.03
2023-03-04T18:54:25.105Z,52.25
2023-03-04T18:56:57.407Z,52.83
2023-03-04T18:59:34.297Z,54.22
2023-03-04T19:02:05.540Z,55.57
2023-03-04T19:04:32.468Z,56.62
2023-03-04T19:07:00.739Z,56.92
2023-03-04T19:09:30.156Z,57.74
2023-03-04T19:15:43.333Z,58.61
2023-03-04T19:18:09.906Z,58.95
2023-03-04T19:20:38.089Z,59.03
2023-03-04T19:23:06.128Z,59.40
2023-03-04T19:25:32.837Z,59.50
2023-03-04T19:31:46.607Z,59.67
2023-03-04T19:34:18.108Z,60.63
2023-03-04T19:36:51.925Z,60.69
2023-03-04T19:39:26.821Z,60.24
2023-03-04T19:42:01.781Z,60.57
2023-03-04T19:44:31.531Z,61.16
2023-03-04T19:47:12.454Z,62.23
2023-03-04T19:49:39.279Z,62.17
2023-03-04T19:52:09.892Z,62.14
2023-03-04T19:54:39.098Z,61.68
2023-03-04T19:57:10.150Z,61.65
2023-03-04T19:59:39.864Z,62.13
2023-03-04T20:02:06.817Z,62.06
2023-03-04T20:04:33.525Z,62.30
2023-03-04T20:07:01.082Z,61.84
2023-03-04T20:09:30.494Z,62.04
2023-03-04T20:12:00.043Z,62.08
2023-03-04T20:14:38.279Z,62.01
2023-03-04T20:17:09.694Z,61.86
2023-03-04T20:19:36.652Z,61.84
2023-03-04T20:22:06.751Z,62.18
2023-03-04T20:24:36.082Z,62.96
2023-03-04T20:27:05.557Z,62.66
2023-03-04T20:29:32.306Z,63.10
2023-03-04T20:31:59.361Z,62.96
2023-03-04T20:34:36.866Z,63.23
2023-03-04T20:37:03.597Z,63.05
2023-03-04T20:39:30.412Z,63.50
2023-03-04T20:41:58.702Z,63.40
2023-03-04T20:44:25.624Z,63.28
2023-03-04T20:46:52.600Z,62.99
2023-03-04T20:49:23.525Z,62.66
2023-03-04T20:51:54.844Z,62.87
2023-03-04T20:54:26.223Z,62.61
2023-03-04T20:56:52.807Z,62.35
2023-03-04T20:59:22.805Z,62.38
2023-03-04T21:01:49.655Z,62.65
2023-03-04T21:04:17.467Z,63.33
2023-03-04T21:06:45.133Z,62.56
2023-03-04T21:09:17.666Z,63.00
2023-03-04T21:11:48.429Z,62.54
2023-03-04T21:14:33.245Z,63.11
2023-03-04T21:17:02.335Z,63.04
2023-03-04T21:19:34.306Z,63.31
2023-03-04T21:22:06.628Z,63.13
2023-03-04T21:24:36.126Z,63.21
2023-03-04T21:27:06.836Z,63.60
2023-03-04T21:29:34.013Z,63.39
2023-03-04T21:32:27.102Z,64.31
2023-03-04T21:34:55.320Z,64.83
2023-03-04T21:37:24.067Z,64.92
2023-03-04T21:39:50.705Z,64.78
2023-03-04T21:42:17.393Z,64.94
2023-03-04T21:44:51.959Z,64.54
2023-03-04T21:47:22.072Z,64.33
2023-03-04T21:49:49.410Z,64.35
2023-03-04T21:52:19.926Z,64.80
2023-03-04T21:54:46.954Z,64.22
2023-03-04T21:57:16.554Z,64.66
2023-03-04T21:59:45.688Z,64.23
2023-03-04T22:02:18.197Z,64.94
2023-03-04T22:04:47.297Z,64.51
2023-03-04T22:07:16.640Z,64.81
2023-03-04T22:09:43.092Z,64.76
2023-03-04T22:12:09.647Z,65.72
2023-03-04T22:21:39.541Z,65.54
2023-03-04T22:24:08.682Z,65.92
2023-03-04T22:26:35.452Z,65.86
2023-03-04T22:29:02.599Z,65.63
2023-03-04T22:31:35.205Z,65.42
2023-03-04T22:34:01.893Z,65.67
2023-03-04T22:36:29.982Z,66.43
2023-03-04T22:38:56.712Z,65.96
2023-03-04T22:41:23.562Z,66.29
2023-03-04T22:43:53.174Z,65.66
2023-03-04T22:46:27.890Z,65.80
2023-03-04T22:49:00.237Z,65.54
2023-03-04T22:51:32.296Z,66.52
2023-03-04T22:54:03.775Z,66.42
2023-03-04T22:56:30.449Z,65.82
2023-03-04T22:58:57.033Z,65.75
2023-03-04T23:01:23.644Z,65.66
2023-03-04T23:03:55.487Z,66.08
2023-03-04T23:06:30.726Z,66.61
2023-03-04T23:08:59.039Z,66.02
2023-03-04T23:11:31.148Z,66.44
2023-03-04T23:13:58.250Z,66.31
2023-03-04T23:16:27.825Z,66.71
2023-03-04T23:18:59.316Z,66.48
2023-03-04T23:21:28.364Z,66.56
2023-03-04T23:23:57.278Z,66.55
2023-03-04T23:26:29.585Z,66.80
2023-03-04T23:28:57.205Z,67.17
2023-03-04T23:31:25.566Z,66.85
2023-03-04T23:33:57.641Z,67.02
2023-03-04T23:36:30.179Z,67.21
2023-03-04T23:38:59.691Z,67.17
2023-03-04T23:41:34.367Z,67.16
2023-03-04T23:44:01.257Z,67.16
2023-03-04T23:46:32.592Z,67.25
2023-03-04T23:49:01.447Z,67.51
2023-03-04T23:51:30.790Z,67.51
2023-03-04T23:53:57.793Z,67.36
2023-03-04T23:56:31.122Z,67.99
2023-03-04T23:59:00.892Z,67.96
